Time;durP1;ratioP1;P1;durP2;ratioP2;P2;SDS_P1;SDS_P2;PMS_P1;PMS_P2;Temp;Humidity;BMP_temperature;BMP_pressure;BME280_temperature;BME280_humidity;BME280_pressure;Samples;Min_cycle;Max_cycle;Signal;HPM_P1;HPM_P2
2021/06/23 00:00:26;;;;;;;24.52;5.55;;;;;;;23.90;54.62;99347.71;1711261;83;20179;-44
2021/06/23 00:02:53;;;;;;;16.73;4.47;;;;;;;23.80;54.54;99343.49;1711129;83;21160;-44
2021/06/23 00:05:21;;;;;;;24.15;5.30;;;;;;;23.83;54.60;99337.05;1711034;83;20930;-44
2021/06/23 00:07:48;;;;;;;18.32;5.10;;;;;;;23.85;54.82;99341.36;1711175;83;20899;-44
2021/06/23 00:10:15;;;;;;;18.52;4.95;;;;;;;23.85;54.74;99341.36;1712167;83;21563;-44
2021/06/23 00:12:43;;;;;;;16.55;4.20;;;;;;;23.84;54.79;99340.59;1711843;83;20994;-44
2021/06/23 00:15:13;;;;;;;13.45;4.47;;;;;;;23.83;54.97;99337.05;1712752;83;21500;-44
2021/06/23 00:17:41;;;;;;;20.00;4.83;;;;;;;23.83;55.27;99338.42;1712297;83;20988;-44
2021/06/23 00:20:09;;;;;;;22.17;5.22;;;;;;;23.83;55.36;99334.27;1713126;83;20981;-44
2021/06/23 00:22:36;;;;;;;15.25;4.47;;;;;;;23.82;55.30;99338.26;1711129;83;21871;-44
2021/06/23 00:25:05;;;;;;;17.90;4.17;;;;;;;23.82;55.49;99339.64;1711290;83;21097;-44
2021/06/23 00:27:31;;;;;;;19.40;4.62;;;;;;;23.80;55.58;99339.34;1713316;82;21496;-44
2021/06/23 00:29:58;;;;;;;17.90;5.17;;;;;;;23.76;55.63;99346.22;1713404;83;21033;-44
2021/06/23 00:32:24;;;;;;;16.55;5.00;;;;;;;23.73;55.59;99340.18;1713380;83;21021;-44
2021/06/23 00:34:51;;;;;;;17.90;4.75;;;;;;;23.68;55.72;99349.83;1713325;83;21049;-44
2021/06/23 00:37:18;;;;;;;14.33;4.47;;;;;;;23.66;55.77;99350.91;1713434;83;21638;-44
2021/06/23 00:39:45;;;;;;;14.73;4.97;;;;;;;23.63;55.84;99349.02;1713247;82;22341;-44
2021/06/23 00:42:12;;;;;;;13.25;4.60;;;;;;;23.61;56.18;99347.94;1713255;83;20993;-44
2021/06/23 00:44:40;;;;;;;19.37;5.72;;;;;;;23.57;56.32;99348.67;1713276;83;21099;-44
2021/06/23 00:47:08;;;;;;;15.93;4.62;;;;;;;23.55;56.39;99351.09;1713307;83;21014;-44
2021/06/23 00:49:36;;;;;;;16.50;5.22;;;;;;;23.52;56.76;99351.40;1713361;83;21010;-43
2021/06/23 00:52:08;;;;;;;17.12;4.60;;;;;;;23.50;56.94;99355.81;1713173;82;21099;-43
2021/06/23 00:54:53;;;;;;;16.65;4.72;;;;;;;23.46;57.35;99345.48;1713168;83;21539;-43
2021/06/23 00:57:24;;;;;;;12.80;4.60;;;;;;;23.37;57.58;99340.61;1712786;82;21089;-44
2021/06/23 00:59:52;;;;;;;19.65;5.37;;;;;;;23.32;57.36;99341.17;1713286;83;21088;-44
2021/06/23 01:02:20;;;;;;;19.45;5.00;;;;;;;23.27;57.42;99339.75;1713185;83;21093;-44
2021/06/23 01:04:50;;;;;;;16.70;4.87;;;;;;;23.22;57.65;99336.77;1713728;83;21092;-43
2021/06/23 01:07:17;;;;;;;18.65;5.60;;;;;;;23.18;57.75;99336.89;1713253;83;20937;-43
2021/06/23 01:09:46;;;;;;;11.05;4.37;;;;;;;23.11;57.63;99332.95;1713456;82;21034;-44
2021/06/23 01:12:30;;;;;;;16.10;4.70;;;;;;;23.08;57.41;99342.76;1713200;83;21029;-43
2021/06/23 01:15:03;;;;;;;18.37;4.80;;;;;;;23.05;57.41;99335.33;1713579;82;21076;-43
2021/06/23 01:17:29;;;;;;;16.20;4.78;;;;;;;23.00;57.48;99337.27;1713369;82;21832;-43
2021/06/23 01:20:05;;;;;;;18.32;4.72;;;;;;;22.94;57.84;99339.23;1703669;83;20938;-43
2021/06/23 01:22:34;;;;;;;17.57;4.75;;;;;;;22.89;57.84;99334.27;1713183;82;21029;-43
2021/06/23 01:25:01;;;;;;;17.95;4.78;;;;;;;22.84;58.33;99338.97;1702170;83;21084;-44
2021/06/23 01:27:28;;;;;;;21.23;4.75;;;;;;;22.82;58.82;99346.91;1712961;82;21058;-43
2021/06/23 01:29:55;;;;;;;13.28;4.30;;;;;;;22.80;58.72;99339.66;1713094;83;21872;-44
2021/06/23 01:32:23;;;;;;;15.38;4.70;;;;;;;22.78;58.91;99343.48;1711622;82;20934;-43
2021/06/23 01:34:50;;;;;;;15.88;4.95;;;;;;;22.78;58.81;99338.56;1711823;83;20961;-44
2021/06/23 01:37:17;;;;;;;14.07;4.37;;;;;;;22.76;58.88;99337.62;1712186;83;21025;-43
2021/06/23 01:39:44;;;;;;;16.80;4.83;;;;;;;22.76;58.62;99340.38;1701224;83;21061;-44
2021/06/23 01:42:11;;;;;;;15.13;4.50;;;;;;;22.77;58.41;99337.79;1712814;83;21141;-43
2021/06/23 01:44:38;;;;;;;9.38;3.90;;;;;;;22.78;60.66;99337.96;1712289;83;21766;-43
2021/06/23 01:47:05;;;;;;;13.28;4.55;;;;;;;22.78;61.46;99335.80;1713642;83;21089;-43
2021/06/23 01:49:32;;;;;;;15.63;4.67;;;;;;;22.79;61.30;99341.50;1712600;83;21511;-44
2021/06/23 01:51:59;;;;;;;16.10;4.80;;;;;;;22.78;60.13;99340.73;1712537;83;20986;-43
2021/06/23 01:54:26;;;;;;;11.57;4.85;;;;;;;22.78;60.19;99342.11;1699319;83;21130;-44
2021/06/23 01:56:53;;;;;;;13.40;4.45;;;;;;;22.80;60.23;99337.53;1710868;83;21058;-43
2021/06/23 01:59:21;;;;;;;11.30;4.00;;;;;;;22.79;60.87;99339.52;1710993;83;21612;-43
2021/06/23 02:02:20;;;;;;;13.65;4.40;;;;;;;22.78;61.21;99341.33;1710673;83;21065;-43
2021/06/23 02:05:05;;;;;;;11.30;4.15;;;;;;;22.76;60.95;99339.00;1710006;83;21017;-43
2021/06/23 02:07:58;;;;;;;9.28;3.87;;;;;;;22.73;60.76;99341.27;1710916;83;21132;-43
2021/06/23 02:11:16;;;;;;;14.30;3.65;;;;;;;22.71;60.98;99342.92;1710885;83;21018;-44
2021/06/23 02:14:08;;;;;;;14.00;4.75;;;;;;;22.37;61.53;99297.94;1711446;83;21076;-44
2021/06/23 02:16:38;;;;;;;18.70;4.30;;;;;;;22.56;61.20;99345.30;1712054;83;21476;-44
2021/06/23 02:19:06;;;;;;;16.12;4.15;;;;;;;22.45;60.56;99345.65;1699205;83;21026;-44
2021/06/23 02:21:49;;;;;;;15.05;4.12;;;;;;;22.35;61.00;99345.35;1700363;83;21146;-44
2021/06/23 02:24:16;;;;;;;17.48;4.80;;;;;;;22.27;61.27;99342.61;1710933;83;21025;-44
2021/06/23 02:26:45;;;;;;;16.20;4.37;;;;;;;22.21;61.29;99343.00;1711793;82;21013;-44
2021/06/23 02:29:12;;;;;;;14.25;4.72;;;;;;;22.13;61.27;99343.63;1710826;83;21041;-44
2021/06/23 02:31:40;;;;;;;15.72;4.17;;;;;;;22.02;61.83;99346.10;1712063;83;21025;-44
2021/06/23 02:34:10;;;;;;;18.23;4.30;;;;;;;21.96;61.94;99336.80;1670510;85;21129;-44
2021/06/23 02:37:37;;;;;;;14.98;4.72;;;;;;;21.98;62.46;99342.64;1778987;79;22684;-43
2021/06/23 02:40:08;;;;;;;14.63;4.58;;;;;;;21.92;62.77;99344.98;1738766;82;21517;-44
2021/06/23 02:42:37;;;;;;;15.13;4.53;;;;;;;21.91;63.35;99345.58;1738865;82;21146;-44
2021/06/23 02:45:06;;;;;;;16.93;4.90;;;;;;;21.92;62.96;99347.14;1719961;82;21025;-43
2021/06/23 02:47:34;;;;;;;18.12;5.95;;;;;;;21.93;62.90;99352.05;1739315;82;21489;-43
2021/06/23 02:50:09;;;;;;;14.83;5.30;;;;;;;21.94;62.54;99354.39;1721029;82;20989;-43
2021/06/23 02:52:38;;;;;;;23.15;5.55;;;;;;;21.94;62.38;99355.77;1736085;82;20940;-43
2021/06/23 02:55:07;;;;;;;17.52;5.12;;;;;;;21.98;62.10;99364.72;1738761;82;21139;-44
2021/06/23 02:57:36;;;;;;;17.10;4.33;;;;;;;22.05;62.02;99368.69;1738818;82;20986;-44
2021/06/23 03:00:06;;;;;;;13.53;3.90;;;;;;;22.12;61.60;99366.94;1738796;82;20942;-43
2021/06/23 03:02:34;;;;;;;8.40;3.87;;;;;;;22.21;60.56;99367.08;1738788;82;21089;-44
2021/06/23 03:05:00;;;;;;;11.90;4.08;;;;;;;22.32;59.98;99371.67;1739032;82;21563;-44
2021/06/23 03:07:28;;;;;;;11.40;4.33;;;;;;;22.44;59.57;99372.32;1738985;82;22009;-44
2021/06/23 03:10:09;;;;;;;10.15;4.40;;;;;;;22.55;59.34;99364.50;1738239;82;21509;-44
2021/06/23 03:12:55;;;;;;;12.35;4.00;;;;;;;22.67;58.92;99371.25;1738792;82;20970;-44
2021/06/23 03:15:40;;;;;;;16.40;4.62;;;;;;;22.77;58.58;99370.18;1738964;82;21500;-44
2021/06/23 03:18:08;;;;;;;15.78;4.97;;;;;;;22.87;58.38;99372.62;1738204;82;21049;-44
2021/06/23 03:20:36;;;;;;;15.48;4.90;;;;;;;22.96;58.06;99371.34;1738931;82;21119;-44
2021/06/23 03:23:03;;;;;;;13.50;5.10;;;;;;;23.05;57.80;99369.90;1738759;82;20985;-44
2021/06/23 03:25:30;;;;;;;11.50;5.05;;;;;;;23.13;57.56;99371.24;1738980;82;21055;-44
2021/06/23 03:27:59;;;;;;;11.28;4.70;;;;;;;23.19;57.47;99367.45;1732991;81;21596;-44
2021/06/23 03:30:27;;;;;;;16.60;5.03;;;;;;;23.24;57.13;99364.73;1727158;83;21044;-44
2021/06/23 03:32:55;;;;;;;13.03;4.60;;;;;;;23.31;57.02;99364.52;1732667;82;21174;-44
2021/06/23 03:35:22;;;;;;;9.90;4.03;;;;;;;23.37;57.06;99361.36;1726971;83;21010;-44
2021/06/23 03:37:51;;;;;;;8.63;4.03;;;;;;;23.44;56.86;99366.64;1726805;82;20890;-44
2021/06/23 03:40:17;;;;;;;11.68;4.42;;;;;;;23.48;56.69;99365.94;1735281;82;21107;-44
2021/06/23 03:42:45;;;;;;;13.55;4.25;;;;;;;23.55;56.63;99367.09;1727210;83;21518;-44
2021/06/23 03:45:13;;;;;;;9.48;3.90;;;;;;;23.62;56.45;99368.25;1727066;83;21880;-44
2021/06/23 03:47:40;;;;;;;10.32;4.53;;;;;;;23.68;56.41;99371.98;1726803;82;20998;-44
2021/06/23 03:50:11;;;;;;;13.00;4.40;;;;;;;23.76;56.59;99366.98;1726571;82;20977;-44
2021/06/23 03:52:38;;;;;;;15.40;4.37;;;;;;;23.83;56.52;99370.27;1726500;83;21025;-44
2021/06/23 03:55:08;;;;;;;12.03;4.00;;;;;;;23.92;56.67;99368.78;1726499;83;21091;-44
2021/06/23 03:57:35;;;;;;;8.73;3.52;;;;;;;24.00;56.58;99365.34;1734645;82;21109;-44
2021/06/23 04:00:06;;;;;;;10.58;3.70;;;;;;;24.04;56.54;99355.51;1726352;82;21013;-44
2021/06/23 04:02:33;;;;;;;9.27;3.60;;;;;;;24.17;56.65;99359.02;1726752;82;21495;-44
2021/06/23 04:05:00;;;;;;;10.28;3.80;;;;;;;24.23;56.56;99356.60;1726305;83;21767;-44
2021/06/23 04:07:31;;;;;;;8.85;4.10;;;;;;;24.30;56.56;99357.58;1726760;82;20972;-44
2021/06/23 04:09:59;;;;;;;8.88;3.80;;;;;;;24.36;56.82;99355.13;1726691;82;21479;-44
2021/06/23 04:12:28;;;;;;;5.42;3.72;;;;;;;24.41;56.19;99344.85;1726829;82;20981;-44
2021/06/23 04:14:55;;;;;;;10.78;4.53;;;;;;;24.49;56.08;99346.14;1726465;82;20992;-44
2021/06/23 04:17:22;;;;;;;13.65;4.78;;;;;;;24.56;56.12;99354.78;1726475;82;21056;-44
2021/06/23 04:19:50;;;;;;;8.60;4.40;;;;;;;24.63;56.39;99356.69;1726503;82;21080;-44
2021/06/23 04:22:27;;;;;;;18.55;5.17;;;;;;;24.68;57.05;99347.78;1727120;82;21134;-44
2021/06/23 04:24:56;;;;;;;12.93;5.35;;;;;;;24.77;57.59;99355.36;1720932;82;21025;-44
2021/06/23 04:27:23;;;;;;;17.57;4.92;;;;;;;24.82;57.56;99352.61;1726428;81;21020;-44
2021/06/23 04:29:50;;;;;;;16.82;5.47;;;;;;;24.85;57.14;99358.00;1726599;83;21057;-44
2021/06/23 04:32:18;;;;;;;19.87;4.87;;;;;;;24.89;57.31;99364.20;1735967;81;21391;-44
2021/06/23 04:34:46;;;;;;;9.80;4.05;;;;;;;24.91;57.19;99362.38;1751553;82;22021;-44
2021/06/23 04:37:26;;;;;;;10.20;4.12;;;;;;;24.95;56.89;99361.00;1748668;82;21081;-44
2021/06/23 04:39:54;;;;;;;13.35;4.20;;;;;;;25.03;56.40;99365.64;1749200;81;21042;-44
2021/06/23 04:42:22;;;;;;;9.60;4.10;;;;;;;25.10;55.13;99359.82;1749197;82;21037;-44
2021/06/23 04:44:49;;;;;;;9.40;3.95;;;;;;;25.18;54.80;99364.45;1749139;82;21004;-44
2021/06/23 04:47:19;;;;;;;10.35;4.62;;;;;;;25.26;54.59;99367.89;1749288;82;21009;-44
2021/06/23 04:49:46;;;;;;;13.20;3.95;;;;;;;25.32;54.31;99377.78;1723392;82;21033;-44
2021/06/23 04:52:18;;;;;;;8.95;4.28;;;;;;;25.38;54.19;99379.47;1749060;81;21243;-44
2021/06/23 04:54:45;;;;;;;10.48;4.10;;;;;;;25.48;54.09;99381.03;1749073;82;20934;-44
2021/06/23 04:57:12;;;;;;;12.50;4.40;;;;;;;25.58;54.22;99383.85;1749022;82;21028;-44
2021/06/23 04:59:39;;;;;;;13.93;4.25;;;;;;;25.67;54.17;99388.03;1749027;82;21484;-44
2021/06/23 05:02:06;;;;;;;8.25;3.70;;;;;;;25.74;54.09;99380.80;1749067;81;20992;-44
2021/06/23 05:04:33;;;;;;;10.65;4.28;;;;;;;25.81;54.06;99376.31;1749196;82;20977;-44
2021/06/23 05:07:05;;;;;;;8.98;3.87;;;;;;;25.90;54.67;99374.95;1749165;82;21516;-44
2021/06/23 05:09:31;;;;;;;13.15;4.00;;;;;;;25.98;53.54;99378.18;1749437;81;22228;-44
2021/06/23 05:11:58;;;;;;;14.68;3.90;;;;;;;26.03;53.24;99367.22;1749071;82;21858;-44
2021/06/23 05:14:25;;;;;;;8.20;3.70;;;;;;;26.10;53.38;99363.34;1749095;82;20974;-44
2021/06/23 05:16:51;;;;;;;10.90;3.92;;;;;;;26.18;53.60;99362.58;1749046;82;21275;-44
2021/06/23 05:19:18;;;;;;;7.45;3.20;;;;;;;26.27;53.58;99350.09;1749137;82;21029;-44
2021/06/23 05:21:45;;;;;;;6.85;2.95;;;;;;;26.37;53.38;99350.84;1749070;82;21003;-44
2021/06/23 05:24:12;;;;;;;8.08;2.90;;;;;;;26.48;52.39;99351.74;1748898;82;21131;-44
2021/06/23 05:26:39;;;;;;;14.00;3.27;;;;;;;26.59;51.98;99350.61;1749033;81;20981;-44
2021/06/23 05:29:05;;;;;;;8.78;3.00;;;;;;;26.70;51.80;99352.28;1719983;82;20937;-44
2021/06/23 05:31:32;;;;;;;7.78;3.15;;;;;;;26.80;51.26;99348.23;1718932;83;21029;-44
2021/06/23 05:33:59;;;;;;;9.60;3.05;;;;;;;26.93;50.55;99350.81;1718978;83;21017;-44
2021/06/23 05:36:25;;;;;;;9.63;3.10;;;;;;;27.03;50.87;99348.92;1718474;82;21129;-44
2021/06/23 05:38:53;;;;;;;7.28;2.80;;;;;;;27.13;50.69;99343.45;1713711;82;21527;-44
2021/06/23 05:41:20;;;;;;;7.28;2.60;;;;;;;27.23;49.88;99340.77;1713662;83;21032;-44
2021/06/23 05:43:47;;;;;;;8.30;2.92;;;;;;;27.34;49.61;99343.65;1713665;83;20898;-44
2021/06/23 05:46:13;;;;;;;7.80;2.75;;;;;;;27.44;48.85;99339.56;1713611;82;21045;-44
2021/06/23 05:48:40;;;;;;;5.97;2.30;;;;;;;27.55;48.46;99339.19;1713694;83;21141;-44
2021/06/23 05:51:07;;;;;;;6.78;2.40;;;;;;;27.66;48.50;99338.64;1713552;83;20974;-44
2021/06/23 05:53:35;;;;;;;9.13;2.83;;;;;;;27.76;48.94;99331.76;1713547;82;20950;-44
2021/06/23 05:56:02;;;;;;;8.70;2.52;;;;;;;27.86;49.35;99333.22;1713466;83;20942;-44
2021/06/23 05:58:28;;;;;;;11.08;2.40;;;;;;;27.96;49.72;99327.72;1713981;83;21061;-44
2021/06/23 06:00:55;;;;;;;13.10;3.02;;;;;;;28.04;49.24;99327.48;1713494;83;21137;-44
2021/06/23 06:03:22;;;;;;;6.75;2.50;;;;;;;28.16;48.55;99331.28;1713872;82;21015;-44
2021/06/23 06:05:50;;;;;;;9.40;3.15;;;;;;;28.26;48.11;99324.36;1713535;82;20918;-44
2021/06/23 06:08:16;;;;;;;8.88;3.30;;;;;;;28.35;48.76;99316.52;1713578;82;21057;-44
2021/06/23 06:10:43;;;;;;;12.03;2.60;;;;;;;28.45;49.01;99324.30;1713655;83;21571;-44
2021/06/23 06:13:10;;;;;;;12.33;3.08;;;;;;;28.57;48.77;99321.67;1713817;83;21114;-44
2021/06/23 06:15:36;;;;;;;6.50;2.50;;;;;;;28.66;49.01;99323.73;1713548;83;21511;-44
2021/06/23 06:18:05;;;;;;;9.10;2.30;;;;;;;28.75;48.95;99326.47;1713634;83;21230;-44
2021/06/23 06:20:32;;;;;;;10.87;3.17;;;;;;;28.83;48.89;99319.22;1713768;83;21024;-44
2021/06/23 06:22:59;;;;;;;7.58;2.40;;;;;;;28.89;48.68;99331.24;1713477;83;21021;-44
2021/06/23 06:25:27;;;;;;;6.75;2.60;;;;;;;28.96;48.46;99331.45;1713695;83;21126;-44
2021/06/23 06:27:53;;;;;;;6.87;2.70;;;;;;;29.04;48.43;99332.59;1713524;82;21008;-44
2021/06/23 06:30:23;;;;;;;7.25;2.40;;;;;;;29.14;48.11;99330.45;1713392;83;21531;-44
2021/06/23 06:32:53;;;;;;;5.33;2.10;;;;;;;29.19;47.83;99333.30;1713694;83;21268;-44
2021/06/23 06:35:20;;;;;;;6.95;2.40;;;;;;;29.25;46.71;99333.38;1713399;83;21089;-44
2021/06/23 06:37:48;;;;;;;5.35;2.30;;;;;;;29.31;45.87;99330.06;1713638;82;21927;-44
2021/06/23 06:40:17;;;;;;;6.28;2.33;;;;;;;29.37;45.98;99323.93;1713432;83;21017;-44
2021/06/23 06:42:43;;;;;;;8.08;2.70;;;;;;;29.45;47.15;99322.87;1713814;83;21045;-44
2021/06/23 06:45:11;;;;;;;4.05;2.40;;;;;;;29.51;47.03;99321.69;1713463;83;20969;-44
2021/06/23 06:47:38;;;;;;;9.08;2.45;;;;;;;29.55;46.52;99320.84;1713587;82;22158;-44
2021/06/23 06:50:07;;;;;;;8.98;2.40;;;;;;;29.60;46.42;99320.15;1713399;83;21122;-44
2021/06/23 06:52:34;;;;;;;6.03;2.50;;;;;;;29.65;45.64;99315.25;1713426;83;21847;-44
2021/06/23 06:55:02;;;;;;;7.25;2.37;;;;;;;29.69;44.88;99314.41;1713306;83;21009;-44
2021/06/23 06:57:28;;;;;;;7.67;2.75;;;;;;;29.73;44.63;99308.59;1713557;83;21038;-44
2021/06/23 06:59:55;;;;;;;5.35;2.17;;;;;;;29.78;44.77;99306.49;1713661;83;21523;-44
2021/06/23 07:02:22;;;;;;;7.12;2.42;;;;;;;29.82;44.84;99309.09;1713626;83;21182;-44
2021/06/23 07:04:49;;;;;;;8.30;2.22;;;;;;;29.86;45.09;99314.61;1727191;80;20994;-44
2021/06/23 07:07:15;;;;;;;6.75;2.42;;;;;;;29.85;44.23;99314.46;1723597;80;21013;-44
2021/06/23 07:09:42;;;;;;;8.10;2.25;;;;;;;29.79;44.60;99313.00;1678942;85;21021;-44
2021/06/23 07:12:11;;;;;;;7.78;2.60;;;;;;;29.76;44.86;99311.20;1721473;80;21550;-44
2021/06/23 07:14:39;;;;;;;2.47;2.02;;;;;;;29.77;44.83;99307.78;1719507;80;20990;-44
2021/06/23 07:17:06;;;;;;;7.22;2.70;;;;;;;29.82;45.20;99306.30;1734673;80;20981;-44
2021/06/23 07:19:34;;;;;;;5.00;2.37;;;;;;;29.86;45.12;99305.45;1686014;84;21513;-44
2021/06/23 07:22:00;;;;;;;8.45;2.40;;;;;;;29.93;44.92;99303.00;1718372;80;20998;-44
2021/06/23 07:24:27;;;;;;;6.58;2.45;;;;;;;30.02;44.60;99300.04;1679067;85;21090;-44
2021/06/23 07:26:58;;;;;;;6.62;2.25;;;;;;;30.13;44.71;99304.98;1680055;84;21813;-44
2021/06/23 07:29:22;;;;;;;10.13;2.65;;;;;;;30.26;44.80;99305.34;1681796;84;21509;-44
2021/06/23 07:32:13;;;;;;;10.15;2.58;;;;;;;30.36;44.11;99301.73;1687179;83;21324;-44
2021/06/23 07:37:12;;;;;;;6.60;2.20;;;;;;;30.58;42.89;99294.97;1681815;83;21141;-44
2021/06/23 07:39:39;;;;;;;3.35;2.20;;;;;;;30.67;42.27;99297.57;1722941;82;21149;-44
2021/06/23 07:42:08;;;;;;;6.97;2.42;;;;;;;30.81;42.72;99298.05;1721445;82;20928;-44
2021/06/23 07:44:41;;;;;;;5.25;2.65;;;;;;;30.96;42.19;99294.45;1719710;83;22061;-44
2021/06/23 07:47:12;;;;;;;;;;;;;;;31.11;42.43;99304.11;1722039;83;21479;-44
2021/06/23 07:49:41;;;;;;;5.53;2.83;;;;;;;31.26;41.45;99306.10;1702403;84;20177;-44
2021/06/23 08:13:06;;;;;;;5.08;2.17;;;;;;;32.16;39.00;99315.58;1697194;83;21007;-44
2021/06/23 08:15:35;;;;;;;7.53;2.10;;;;;;;32.26;38.09;99322.48;1702455;84;21050;-44
2021/06/23 08:18:02;;;;;;;6.62;2.37;;;;;;;32.33;38.34;99317.14;1712953;83;21113;-44
2021/06/23 08:20:29;;;;;;;9.15;2.30;;;;;;;32.43;38.09;99316.89;1713967;82;21017;-45
2021/06/23 08:22:56;;;;;;;13.05;2.75;;;;;;;32.50;38.79;99318.53;1703288;83;21103;-44
2021/06/23 08:25:23;;;;;;;4.78;2.12;;;;;;;32.57;37.98;99320.08;1681493;85;21496;-44
2021/06/23 08:27:51;;;;;;;4.90;2.50;;;;;;;32.63;37.82;99311.02;1708888;82;21010;-44
2021/06/23 08:30:19;;;;;;;7.33;2.20;;;;;;;32.73;38.22;99317.91;1733318;82;21143;-44
2021/06/23 08:32:46;;;;;;;4.17;2.67;;;;;;;32.82;37.45;99314.85;1689648;83;21051;-45
2021/06/23 08:35:13;;;;;;;7.62;2.22;;;;;;;32.91;37.20;99313.17;1684153;82;21053;-44
2021/06/23 08:37:41;;;;;;;5.28;2.10;;;;;;;32.98;37.50;99305.61;1700321;83;21058;-45
2021/06/23 08:40:10;;;;;;;10.60;2.42;;;;;;;33.08;37.04;99312.48;1653986;84;21024;-44
2021/06/23 08:42:37;;;;;;;;;;;;;;;33.19;36.71;99306.87;1736011;80;21084;-45
2021/06/23 08:45:06;;;;;;;4.10;2.15;;;;;;;33.33;34.75;99307.06;1717683;80;20178;-45
2021/06/23 08:47:41;;;;;;;5.08;2.45;;;;;;;33.35;35.78;99317.16;1727680;80;21794;-44
2021/06/23 08:50:10;;;;;;;8.38;2.37;;;;;;;33.43;34.71;99303.45;1673978;84;21525;-45
2021/06/23 08:52:37;;;;;;;6.42;2.77;;;;;;;33.40;35.25;99304.50;1693072;84;21048;-44
2021/06/23 08:55:05;;;;;;;6.15;2.47;;;;;;;33.46;35.46;99301.00;1680887;84;21839;-44
2021/06/23 08:57:33;;;;;;;4.87;2.60;;;;;;;33.48;35.10;99299.86;1689896;82;21542;-44
2021/06/23 09:00:04;;;;;;;7.37;2.57;;;;;;;33.51;34.63;99295.23;1700612;83;21048;-44
2021/06/23 09:02:31;;;;;;;5.58;2.45;;;;;;;33.54;34.00;99297.02;1694641;84;20965;-44
2021/06/23 09:05:09;;;;;;;5.17;2.45;;;;;;;33.54;33.98;99295.62;1726394;80;21076;-44
2021/06/23 09:07:53;;;;;;;11.43;2.60;;;;;;;33.55;34.34;99300.70;1687685;84;21108;-44
2021/06/23 09:10:33;;;;;;;6.62;2.70;;;;;;;33.55;34.72;99298.55;1699901;82;21013;-44
2021/06/23 09:13:09;;;;;;;6.83;2.87;;;;;;;33.51;35.19;99306.47;1732463;80;21081;-44
2021/06/23 09:15:53;;;;;;;5.83;2.40;;;;;;;33.50;35.62;99296.53;1683113;84;21032;-44
2021/06/23 09:18:35;;;;;;;8.48;2.50;;;;;;;33.50;35.75;99297.94;1739857;80;21014;-44
2021/06/23 09:21:16;;;;;;;9.08;3.00;;;;;;;33.44;35.30;99295.16;1723745;80;21104;-44
2021/06/23 09:23:56;;;;;;;9.63;2.75;;;;;;;33.47;35.62;99307.39;1679231;84;21032;-44
2021/06/23 09:26:30;;;;;;;5.50;2.58;;;;;;;33.52;35.54;99309.41;1715232;80;20974;-44
2021/06/23 09:29:11;;;;;;;11.05;3.00;;;;;;;33.58;36.59;99309.52;1678640;84;21048;-44
2021/06/23 09:32:00;;;;;;;9.25;3.27;;;;;;;33.71;36.52;99300.53;1673502;85;21045;-45
2021/06/23 09:34:39;;;;;;;5.47;2.42;;;;;;;33.84;35.76;99304.18;1698078;84;21120;-44
2021/06/23 09:37:37;;;;;;;8.70;3.08;;;;;;;33.95;36.07;99298.46;1689655;84;21586;-44
2021/06/23 09:40:21;;;;;;;6.25;2.77;;;;;;;34.07;35.76;99301.98;1697406;84;21499;-45
2021/06/23 09:42:54;;;;;;;9.53;2.62;;;;;;;34.24;35.64;99299.82;1698594;82;20985;-45
2021/06/23 09:45:21;;;;;;;6.15;2.58;;;;;;;34.46;35.53;99295.44;1736138;80;21053;-45
2021/06/23 09:47:48;;;;;;;13.93;2.72;;;;;;;34.68;33.95;99300.11;1737615;81;21499;-45
2021/06/23 09:50:24;;;;;;;5.42;2.52;;;;;;;34.86;33.16;99300.17;1738462;81;21014;-45
2021/06/23 09:53:17;;;;;;;10.90;2.42;;;;;;;35.04;32.01;99300.14;1701394;84;21000;-45
2021/06/23 09:55:46;;;;;;;7.42;2.65;;;;;;;35.20;31.53;99295.61;1724957;80;20930;-45
2021/06/23 09:58:20;;;;;;;13.28;3.40;;;;;;;35.30;30.55;99303.81;1737583;82;21033;-45
2021/06/23 10:01:06;;;;;;;6.58;3.00;;;;;;;35.30;29.40;99298.18;1704741;84;21126;-45
2021/06/23 10:03:55;;;;;;;8.93;2.72;;;;;;;35.30;30.77;99293.95;1737371;80;20987;-45
2021/06/23 10:06:28;;;;;;;7.10;2.70;;;;;;;35.34;31.05;99294.44;1737130;82;21086;-45
2021/06/23 10:09:21;;;;;;;6.72;2.80;;;;;;;35.39;31.18;99283.71;1740609;82;21070;-45
2021/06/23 10:12:06;;;;;;;5.95;2.50;;;;;;;35.45;30.72;99290.05;1725499;80;21527;-45
2021/06/23 10:14:42;;;;;;;6.37;2.72;;;;;;;35.55;31.14;99284.80;1746391;80;21150;-45
2021/06/23 10:17:09;;;;;;;6.10;2.72;;;;;;;35.64;29.71;99287.23;1745096;80;20954;-44
2021/06/23 10:19:36;;;;;;;4.45;2.52;;;;;;;35.69;29.89;99289.24;1680066;82;20973;-44
2021/06/23 10:22:08;;;;;;;9.30;3.08;;;;;;;35.72;30.53;99297.42;1721252;80;21065;-44
2021/06/23 10:24:37;;;;;;;5.72;2.83;;;;;;;35.81;30.38;99296.27;1736067;80;21515;-43
2021/06/23 10:27:07;;;;;;;7.03;3.27;;;;;;;35.70;30.25;99263.98;1670815;84;21328;-43
2021/06/23 10:29:36;;;;;;;6.08;2.50;;;;;;;35.98;30.51;99291.77;1690739;84;21591;-43
2021/06/23 10:32:05;;;;;;;7.53;2.92;;;;;;;36.07;29.58;99285.73;1679737;84;20985;-43
2021/06/23 10:34:35;;;;;;;8.40;2.97;;;;;;;36.12;29.59;99286.29;1714832;80;21034;-43
2021/06/23 10:37:06;;;;;;;8.78;2.90;;;;;;;36.19;29.60;99288.53;1705748;80;20965;-43
2021/06/23 10:39:35;;;;;;;10.23;3.10;;;;;;;36.30;29.15;99288.36;1724168;80;21146;-43
2021/06/23 10:42:06;;;;;;;11.80;2.90;;;;;;;36.39;29.26;99285.13;1696636;83;20996;-43
2021/06/23 10:44:37;;;;;;;9.28;2.67;;;;;;;36.39;29.92;99298.48;1707890;82;21017;-44
2021/06/23 10:47:07;;;;;;;7.15;3.00;;;;;;;36.29;29.00;99296.70;1699370;83;21661;-43
2021/06/23 10:49:54;;;;;;;7.78;2.90;;;;;;;36.11;29.49;99304.55;1705257;83;21032;-44
2021/06/23 10:52:27;;;;;;;6.78;2.90;;;;;;;35.99;29.53;99307.41;1691523;83;21336;-44
2021/06/23 10:55:02;;;;;;;7.33;3.15;;;;;;;35.96;29.77;99305.67;1698858;82;21020;-43
2021/06/23 10:57:42;;;;;;;8.93;2.83;;;;;;;36.04;30.10;99310.16;1700604;82;21076;-43
2021/06/23 11:00:27;;;;;;;9.58;3.25;;;;;;;36.23;30.01;99307.97;1702804;83;20929;-44
2021/06/23 11:03:10;;;;;;;9.20;3.02;;;;;;;36.45;30.37;99305.56;1698165;83;21047;-44
2021/06/23 11:05:50;;;;;;;8.48;3.40;;;;;;;36.68;30.71;99305.19;1709893;83;21146;-43
2021/06/23 11:08:31;;;;;;;8.98;3.42;;;;;;;36.86;30.63;99307.16;1720494;83;20983;-44
2021/06/23 11:11:02;;;;;;;10.75;3.55;;;;;;;37.07;29.85;99311.53;1718638;83;20972;-44
2021/06/23 11:13:37;;;;;;;11.78;3.30;;;;;;;37.21;29.97;99315.26;1705576;83;20972;-43
2021/06/23 11:16:05;;;;;;;8.48;3.10;;;;;;;37.34;29.81;99317.30;1705365;83;21064;-43
2021/06/23 11:18:38;;;;;;;7.45;3.10;;;;;;;37.49;29.16;99318.16;1705633;82;21055;-43
2021/06/23 11:21:21;;;;;;;7.85;3.22;;;;;;;37.60;29.26;99320.14;1704828;83;21005;-43
2021/06/23 11:24:02;;;;;;;8.53;3.20;;;;;;;37.72;29.12;99308.67;1706438;82;21573;-43
2021/06/23 11:26:38;;;;;;;8.73;3.50;;;;;;;37.90;28.90;99310.48;1696227;83;21049;-44
2021/06/23 11:29:15;;;;;;;9.65;3.60;;;;;;;38.03;29.09;99311.22;1696889;83;21008;-43
2021/06/23 11:31:58;;;;;;;13.48;3.35;;;;;;;38.12;28.96;99312.16;1697849;83;21060;-44
2021/06/23 11:34:43;;;;;;;6.12;3.15;;;;;;;38.27;28.86;99314.37;1697027;82;20976;-44
2021/06/23 11:37:15;;;;;;;10.88;3.20;;;;;;;38.42;28.56;99316.59;1691682;84;21162;-44
2021/06/23 11:39:43;;;;;;;11.93;3.70;;;;;;;38.55;28.51;99313.05;1696697;84;21041;-44
2021/06/23 11:42:11;;;;;;;11.50;3.33;;;;;;;38.70;29.28;99305.33;1700764;84;21499;-43
2021/06/23 11:44:39;;;;;;;14.87;3.72;;;;;;;38.95;29.01;99309.98;1718655;80;21112;-43
2021/06/23 11:47:07;;;;;;;15.85;4.20;;;;;;;39.14;26.97;99304.80;1730711;80;20930;-44
2021/06/23 11:49:35;;;;;;;17.82;4.67;;;;;;;39.19;26.35;99308.80;1701061;83;20953;-44
2021/06/23 11:52:04;;;;;;;;;;;;;;;39.25;25.79;99307.98;1737503;81;20926;-44
2021/06/23 11:54:31;;;;;;;12.35;3.70;;;;;;;39.21;25.43;99311.19;1735785;80;20517;-44
2021/06/23 11:56:58;;;;;;;12.00;3.98;;;;;;;39.08;26.17;99304.95;1715377;80;22353;-44
2021/06/23 11:59:24;;;;;;;25.57;5.45;;;;;;;39.21;26.19;99311.19;1720122;80;21018;-44
2021/06/23 12:01:51;;;;;;;23.67;5.40;;;;;;;39.40;25.55;99306.68;1698747;84;21015;-44
2021/06/23 12:04:18;;;;;;;19.70;5.78;;;;;;;39.60;25.66;99310.08;1707383;84;21378;-44
2021/06/23 12:06:45;;;;;;;26.65;5.47;;;;;;;39.74;25.70;99313.53;1699982;84;21009;-44
2021/06/23 12:09:12;;;;;;;25.52;6.35;;;;;;;39.89;25.47;99318.60;1720587;80;21986;-44